sensor_id;sensor_type;location;lat;lon;timestamp;pressure;altitude;pressure_sealevel;temperature;humidity
23223;BME280;11780;13.904;100.620;2023-09-08T00:01:19;100890.84;;;31.59;66.43
23223;BME280;11780;13.904;100.620;2023-09-08T00:03:49;100886.59;;;31.62;66.56
23223;BME280;11780;13.904;100.620;2023-09-08T00:06:20;100889.84;;;31.64;66.66
23223;BME280;11780;13.904;100.620;2023-09-08T00:08:50;100893.09;;;31.66;66.25
23223;BME280;11780;13.904;100.620;2023-09-08T00:11:20;100895.38;;;31.64;66.25
23223;BME280;11780;13.904;100.620;2023-09-08T00:13:51;100899.78;;;31.65;66.39
23223;BME280;11780;13.904;100.620;2023-09-08T00:16:21;100910.69;;;31.70;66.35
23223;BME280;11780;13.904;100.620;2023-09-08T00:18:51;100914.91;;;31.67;66.04
23223;BME280;11780;13.904;100.620;2023-09-08T00:21:22;100916.22;;;31.70;66.46
23223;BME280;11780;13.904;100.620;2023-09-08T00:23:53;100924.19;;;31.71;66.41
23223;BME280;11780;13.904;100.620;2023-09-08T00:26:23;100925.16;;;31.67;66.61
23223;BME280;11780;13.904;100.620;2023-09-08T00:28:54;100935.75;;;31.73;66.34
23223;BME280;11780;13.904;100.620;2023-09-08T00:31:24;100934.75;;;31.69;66.40
23223;BME280;11780;13.904;100.620;2023-09-08T00:33:54;100941.28;;;31.73;66.10
23223;BME280;11780;13.904;100.620;2023-09-08T00:36:25;100941.59;;;31.72;66.60
23223;BME280;11780;13.904;100.620;2023-09-08T00:38:55;100952.16;;;31.70;66.45
23223;BME280;11780;13.904;100.620;2023-09-08T00:41:26;100953.16;;;31.74;66.20
23223;BME280;11780;13.904;100.620;2023-09-08T00:43:57;100961.44;;;31.74;66.22
23223;BME280;11780;13.904;100.620;2023-09-08T00:46:27;100970.56;;;31.74;66.42
23223;BME280;11780;13.904;100.620;2023-09-08T00:48:57;100977.75;;;31.76;65.95
23223;BME280;11780;13.904;100.620;2023-09-08T00:51:28;100978.53;;;31.76;66.34
23223;BME280;11780;13.904;100.620;2023-09-08T00:53:58;100988.63;;;31.81;66.16
23223;BME280;11780;13.904;100.620;2023-09-08T00:56:29;100989.59;;;31.76;66.24
23223;BME280;11780;13.904;100.620;2023-09-08T00:59:00;100991.22;;;31.77;65.92
23223;BME280;11780;13.904;100.620;2023-09-08T01:01:32;100999.53;;;31.77;66.18
23223;BME280;11780;13.904;100.620;2023-09-08T01:04:04;100999.53;;;31.77;65.97
23223;BME280;11780;13.904;100.620;2023-09-08T01:06:35;101007.69;;;31.82;65.96
23223;BME280;11780;13.904;100.620;2023-09-08T01:09:06;101004.91;;;31.82;66.05
23223;BME280;11780;13.904;100.620;2023-09-08T02:04:37;101032.72;;;30.96;66.85
23223;BME280;11780;13.904;100.620;2023-09-08T02:07:08;101037.78;;;31.03;66.83
23223;BME280;11780;13.904;100.620;2023-09-08T02:09:38;101036.81;;;31.08;66.56
23223;BME280;11780;13.904;100.620;2023-09-08T02:12:09;101031.69;;;31.15;66.66
23223;BME280;11780;13.904;100.620;2023-09-08T02:14:39;101027.69;;;31.21;66.52
23223;BME280;11780;13.904;100.620;2023-09-08T02:17:10;101027.22;;;31.28;65.92
23223;BME280;11780;13.904;100.620;2023-09-08T02:19:40;101031.28;;;31.31;65.82
23223;BME280;11780;13.904;100.620;2023-09-08T02:22:11;101034.38;;;31.38;65.56
23223;BME280;11780;13.904;100.620;2023-09-08T02:24:41;101030.16;;;31.40;64.88
23223;BME280;11780;13.904;100.620;2023-09-08T02:27:11;101022.88;;;31.44;64.81
23223;BME280;11780;13.904;100.620;2023-09-08T02:29:42;101019.63;;;31.51;64.78
23223;BME280;11780;13.904;100.620;2023-09-08T02:32:12;101021.72;;;31.54;64.49
23223;BME280;11780;13.904;100.620;2023-09-08T02:34:45;101015.91;;;31.56;64.46
23223;BME280;11780;13.904;100.620;2023-09-08T02:37:16;101020.44;;;31.61;64.38
23223;BME280;11780;13.904;100.620;2023-09-08T02:39:49;101022.88;;;31.62;64.53
23223;BME280;11780;13.904;100.620;2023-09-08T02:44:23;101011.34;;;31.69;63.46
23223;BME280;11780;13.904;100.620;2023-09-08T02:46:53;101015.59;;;31.66;63.66
23223;BME280;11780;13.904;100.620;2023-09-08T02:49:25;101014.00;;;31.74;63.86
23223;BME280;11780;13.904;100.620;2023-09-08T02:51:55;101017.59;;;31.74;63.53
23223;BME280;11780;13.904;100.620;2023-09-08T02:54:25;101009.09;;;31.71;63.35
23223;BME280;11780;13.904;100.620;2023-09-08T02:56:56;101013.00;;;31.70;63.26
23223;BME280;11780;13.904;100.620;2023-09-08T02:59:27;101016.72;;;31.65;62.81
23223;BME280;11780;13.904;100.620;2023-09-08T03:01:59;101017.09;;;31.72;62.65
23223;BME280;11780;13.904;100.620;2023-09-08T03:04:29;101012.88;;;31.75;63.96
23223;BME280;11780;13.904;100.620;2023-09-08T03:07:01;101010.09;;;31.84;64.11
23223;BME280;11780;13.904;100.620;2023-09-08T03:09:33;101010.75;;;31.81;63.38
23223;BME280;11780;13.904;100.620;2023-09-08T03:12:03;101007.19;;;31.80;63.07
23223;BME280;11780;13.904;100.620;2023-09-08T03:14:34;101010.94;;;31.84;62.58
23223;BME280;11780;13.904;100.620;2023-09-08T03:17:06;101011.09;;;31.88;63.51
23223;BME280;11780;13.904;100.620;2023-09-08T03:19:36;101011.41;;;31.95;63.18
23223;BME280;11780;13.904;100.620;2023-09-08T03:22:06;101001.31;;;31.91;63.03
23223;BME280;11780;13.904;100.620;2023-09-08T03:24:37;101002.16;;;31.91;62.30
23223;BME280;11780;13.904;100.620;2023-09-08T03:27:07;101001.31;;;31.91;63.64
23223;BME280;11780;13.904;100.620;2023-09-08T03:29:38;100996.63;;;31.91;63.44
23223;BME280;11780;13.904;100.620;2023-09-08T03:32:08;100997.91;;;31.94;63.15
23223;BME280;11780;13.904;100.620;2023-09-08T03:34:39;101000.53;;;31.99;62.82
23223;BME280;11780;13.904;100.620;2023-09-08T03:37:10;100988.13;;;31.96;63.11
23223;BME280;11780;13.904;100.620;2023-09-08T03:39:40;100988.78;;;32.02;63.35
23223;BME280;11780;13.904;100.620;2023-09-08T03:42:12;100992.53;;;32.06;63.00
23223;BME280;11780;13.904;100.620;2023-09-08T03:44:42;100992.69;;;32.10;63.07
23223;BME280;11780;13.904;100.620;2023-09-08T03:47:13;100994.81;;;32.13;62.64
23223;BME280;11780;13.904;100.620;2023-09-08T03:49:43;100996.44;;;32.14;62.79
23223;BME280;11780;13.904;100.620;2023-09-08T03:52:13;100990.91;;;32.23;62.40
23223;BME280;11780;13.904;100.620;2023-09-08T03:54:44;100991.38;;;32.25;61.79
23223;BME280;11780;13.904;100.620;2023-09-08T03:57:16;100981.63;;;32.27;61.97
23223;BME280;11780;13.904;100.620;2023-09-08T03:59:46;100991.06;;;32.26;62.22
23223;BME280;11780;13.904;100.620;2023-09-08T04:02:17;100989.94;;;32.27;61.82
23223;BME280;11780;13.904;100.620;2023-09-08T04:04:48;100982.94;;;32.30;61.97
23223;BME280;11780;13.904;100.620;2023-09-08T04:07:18;100982.28;;;32.33;61.78
23223;BME280;11780;13.904;100.620;2023-09-08T04:09:49;100983.25;;;32.37;61.68
23223;BME280;11780;13.904;100.620;2023-09-08T04:12:20;100974.47;;;32.35;62.00
23223;BME280;11780;13.904;100.620;2023-09-08T04:14:51;100976.44;;;32.34;62.25
23223;BME280;11780;13.904;100.620;2023-09-08T04:17:21;100972.81;;;32.34;62.41
23223;BME280;11780;13.904;100.620;2023-09-08T04:19:51;100969.41;;;32.37;62.50
23223;BME280;11780;13.904;100.620;2023-09-08T04:22:22;100960.81;;;32.30;62.61
23223;BME280;11780;13.904;100.620;2023-09-08T04:24:52;100970.38;;;32.41;62.49
23223;BME280;11780;13.904;100.620;2023-09-08T04:27:24;100964.84;;;32.41;62.45
23223;BME280;11780;13.904;100.620;2023-09-08T04:29:55;100952.31;;;32.35;62.20
23223;BME280;11780;13.904;100.620;2023-09-08T04:32:25;100950.00;;;32.46;62.56
23223;BME280;11780;13.904;100.620;2023-09-08T04:34:56;100959.16;;;32.46;62.53
23223;BME280;11780;13.904;100.620;2023-09-08T04:37:26;100956.03;;;32.48;61.71
23223;BME280;11780;13.904;100.620;2023-09-08T04:39:57;100951.16;;;32.45;61.75
23223;BME280;11780;13.904;100.620;2023-09-08T04:42:28;100943.69;;;32.45;61.81
23223;BME280;11780;13.904;100.620;2023-09-08T04:45:00;100935.78;;;32.56;60.90
23223;BME280;11780;13.904;100.620;2023-09-08T04:47:31;100934.03;;;32.52;61.19
23223;BME280;11780;13.904;100.620;2023-09-08T04:50:01;100931.59;;;32.50;61.48
23223;BME280;11780;13.904;100.620;2023-09-08T04:52:32;100917.25;;;32.57;61.39
23223;BME280;11780;13.904;100.620;2023-09-08T04:55:04;100911.22;;;32.55;61.75
23223;BME280;11780;13.904;100.620;2023-09-08T04:57:36;100912.19;;;32.59;61.28
23223;BME280;11780;13.904;100.620;2023-09-08T05:00:08;100907.78;;;32.58;61.51
23223;BME280;11780;13.904;100.620;2023-09-08T05:02:38;100903.88;;;32.59;61.74
23223;BME280;11780;13.904;100.620;2023-09-08T05:05:10;100891.97;;;32.58;61.19
23223;BME280;11780;13.904;100.620;2023-09-08T05:07:41;100886.41;;;32.67;60.96
23223;BME280;11780;13.904;100.620;2023-09-08T05:10:12;100881.69;;;32.68;60.77
23223;BME280;11780;13.904;100.620;2023-09-08T05:12:42;100873.03;;;32.69;60.68
23223;BME280;11780;13.904;100.620;2023-09-08T05:15:13;100874.53;;;32.67;60.54
23223;BME280;11780;13.904;100.620;2023-09-08T05:17:49;100868.78;;;32.72;60.53
23223;BME280;11780;13.904;100.620;2023-09-08T05:20:20;100850.41;;;32.67;60.47
23223;BME280;11780;13.904;100.620;2023-09-08T05:25:25;100855.22;;;32.79;61.34
23223;BME280;11780;13.904;100.620;2023-09-08T05:27:57;100851.50;;;32.75;61.14
23223;BME280;11780;13.904;100.620;2023-09-08T05:30:27;100839.13;;;32.81;60.77
23223;BME280;11780;13.904;100.620;2023-09-08T05:32:58;100836.38;;;32.72;61.50
23223;BME280;11780;13.904;100.620;2023-09-08T05:35:29;100836.19;;;32.77;61.25
23223;BME280;11780;13.904;100.620;2023-09-08T05:37:59;100823.00;;;32.74;61.67
23223;BME280;11780;13.904;100.620;2023-09-08T05:40:30;100818.38;;;32.78;60.88
23223;BME280;11780;13.904;100.620;2023-09-08T05:43:01;100805.34;;;32.88;60.36
23223;BME280;11780;13.904;100.620;2023-09-08T05:45:32;100799.66;;;32.84;60.60
23223;BME280;11780;13.904;100.620;2023-09-08T05:48:03;100793.94;;;32.80;61.06
23223;BME280;11780;13.904;100.620;2023-09-08T05:50:34;100785.97;;;32.79;61.48
23223;BME280;11780;13.904;100.620;2023-09-08T05:53:07;100767.22;;;32.85;60.84
23223;BME280;11780;13.904;100.620;2023-09-08T05:55:37;100768.38;;;32.84;61.29
23223;BME280;11780;13.904;100.620;2023-09-08T05:58:08;100751.13;;;32.78;61.28
23223;BME280;11780;13.904;100.620;2023-09-08T06:00:38;100747.16;;;32.88;61.58
23223;BME280;11780;13.904;100.620;2023-09-08T06:03:09;100737.34;;;32.90;61.10
23223;BME280;11780;13.904;100.620;2023-09-08T06:05:39;100737.63;;;32.98;60.39
23223;BME280;11780;13.904;100.620;2023-09-08T06:08:10;100723.97;;;32.92;60.66
23223;BME280;11780;13.904;100.620;2023-09-08T06:10:42;100721.69;;;32.94;60.30
23223;BME280;11780;13.904;100.620;2023-09-08T06:13:13;100717.25;;;32.81;60.90
23223;BME280;11780;13.904;100.620;2023-09-08T06:15:43;100718.78;;;32.91;60.70
23223;BME280;11780;13.904;100.620;2023-09-08T06:18:13;100712.09;;;32.92;60.23
23223;BME280;11780;13.904;100.620;2023-09-08T06:20:45;100704.47;;;32.89;60.19
23223;BME280;11780;13.904;100.620;2023-09-08T06:23:20;100697.91;;;32.93;60.06
23223;BME280;11780;13.904;100.620;2023-09-08T06:25:56;100686.94;;;32.97;60.53
23223;BME280;11780;13.904;100.620;2023-09-08T06:28:32;100683.13;;;32.80;60.58
23223;BME280;11780;13.904;100.620;2023-09-08T06:31:04;100678.59;;;32.85;60.77
23223;BME280;11780;13.904;100.620;2023-09-08T06:33:37;100670.06;;;32.90;60.79
23223;BME280;11780;13.904;100.620;2023-09-08T06:36:07;100661.59;;;32.86;60.78
23223;BME280;11780;13.904;100.620;2023-09-08T06:38:38;100650.94;;;32.97;60.14
23223;BME280;11780;13.904;100.620;2023-09-08T06:41:10;100652.53;;;32.98;59.80
23223;BME280;11780;13.904;100.620;2023-09-08T06:43:42;100650.44;;;32.95;59.99
23223;BME280;11780;13.904;100.620;2023-09-08T06:46:16;100641.69;;;32.93;60.09
23223;BME280;11780;13.904;100.620;2023-09-08T06:48:47;100629.91;;;32.96;60.63
23223;BME280;11780;13.904;100.620;2023-09-08T06:51:18;100628.09;;;33.00;60.11
23223;BME280;11780;13.904;100.620;2023-09-08T06:53:56;100626.25;;;33.04;59.01
23223;BME280;11780;13.904;100.620;2023-09-08T06:56:33;100623.50;;;33.04;58.99
23223;BME280;11780;13.904;100.620;2023-09-08T06:59:03;100614.09;;;32.97;59.31
23223;BME280;11780;13.904;100.620;2023-09-08T07:01:35;100601.41;;;32.95;59.76
23223;BME280;11780;13.904;100.620;2023-09-08T07:04:07;100597.03;;;33.07;59.01
23223;BME280;11780;13.904;100.620;2023-09-08T07:06:37;100593.94;;;33.08;59.40
23223;BME280;11780;13.904;100.620;2023-09-08T07:09:12;100585.97;;;33.07;59.13
23223;BME280;11780;13.904;100.620;2023-09-08T07:11:43;100581.69;;;33.09;59.42
23223;BME280;11780;13.904;100.620;2023-09-08T07:14:13;100579.25;;;33.08;60.08
23223;BME280;11780;13.904;100.620;2023-09-08T07:16:44;100574.06;;;33.06;59.99
23223;BME280;11780;13.904;100.620;2023-09-08T07:19:14;100569.44;;;33.10;59.87
23223;BME280;11780;13.904;100.620;2023-09-08T07:21:45;100566.25;;;33.08;59.86
23223;BME280;11780;13.904;100.620;2023-09-08T07:24:16;100557.44;;;33.06;59.64
23223;BME280;11780;13.904;100.620;2023-09-08T07:26:47;100554.22;;;33.04;59.86
23223;BME280;11780;13.904;100.620;2023-09-08T07:29:17;100547.38;;;33.02;60.48
23223;BME280;11780;13.904;100.620;2023-09-08T07:31:48;100540.69;;;33.03;59.85
23223;BME280;11780;13.904;100.620;2023-09-08T07:34:18;100541.03;;;33.01;59.82
23223;BME280;11780;13.904;100.620;2023-09-08T07:36:49;100535.50;;;33.01;60.28
23223;BME280;11780;13.904;100.620;2023-09-08T07:39:19;100529.50;;;32.99;59.81
23223;BME280;11780;13.904;100.620;2023-09-08T07:41:49;100526.72;;;32.99;60.64
23223;BME280;11780;13.904;100.620;2023-09-08T07:44:20;100526.25;;;32.97;60.55
23223;BME280;11780;13.904;100.620;2023-09-08T07:46:51;100521.38;;;32.94;60.21
23223;BME280;11780;13.904;100.620;2023-09-08T07:49:21;100521.75;;;32.92;60.33
23223;BME280;11780;13.904;100.620;2023-09-08T07:51:53;100512.63;;;32.92;60.50
23223;BME280;11780;13.904;100.620;2023-09-08T07:54:23;100507.09;;;32.92;59.83
23223;BME280;11780;13.904;100.620;2023-09-08T07:56:54;100505.47;;;32.91;60.61
23223;BME280;11780;13.904;100.620;2023-09-08T07:59:24;100507.78;;;32.89;61.04
23223;BME280;11780;13.904;100.620;2023-09-08T08:01:54;100507.78;;;32.89;60.80
23223;BME280;11780;13.904;100.620;2023-09-08T08:04:25;100513.31;;;32.89;60.40
23223;BME280;11780;13.904;100.620;2023-09-08T08:06:55;100509.41;;;32.90;60.39
23223;BME280;11780;13.904;100.620;2023-09-08T08:09:26;100509.72;;;32.88;60.38
23223;BME280;11780;13.904;100.620;2023-09-08T08:11:56;100511.69;;;32.88;60.56
23223;BME280;11780;13.904;100.620;2023-09-08T08:14:26;100508.09;;;32.87;60.55
23223;BME280;11780;13.904;100.620;2023-09-08T08:16:57;100505.81;;;32.89;60.15
23223;BME280;11780;13.904;100.620;2023-09-08T08:19:27;100512.16;;;32.90;59.88
23223;BME280;11780;13.904;100.620;2023-09-08T08:21:57;100507.31;;;32.87;60.17
23223;BME280;11780;13.904;100.620;2023-09-08T08:24:28;100510.19;;;32.90;60.03
23223;BME280;11780;13.904;100.620;2023-09-08T08:26:58;100512.16;;;32.90;59.38
23223;BME280;11780;13.904;100.620;2023-09-08T08:29:29;100509.50;;;32.93;59.76
23223;BME280;11780;13.904;100.620;2023-09-08T08:31:59;100511.50;;;32.93;59.75
23223;BME280;11780;13.904;100.620;2023-09-08T08:34:30;100503.97;;;32.93;59.61
23223;BME280;11780;13.904;100.620;2023-09-08T08:37:00;100509.63;;;32.97;59.37
23223;BME280;11780;13.904;100.620;2023-09-08T08:39:31;100505.59;;;32.94;59.74
23223;BME280;11780;13.904;100.620;2023-09-08T08:42:08;100490.81;;;32.90;59.28
23223;BME280;11780;13.904;100.620;2023-09-08T08:44:38;100495.66;;;32.93;59.40
23223;BME280;11780;13.904;100.620;2023-09-08T08:47:10;100499.59;;;32.92;59.21
23223;BME280;11780;13.904;100.620;2023-09-08T08:49:43;100493.25;;;32.92;59.04
23223;BME280;11780;13.904;100.620;2023-09-08T08:52:16;100499.47;;;32.89;59.02
23223;BME280;11780;13.904;100.620;2023-09-08T08:54:47;100487.25;;;32.90;59.17
23223;BME280;11780;13.904;100.620;2023-09-08T08:57:19;100491.94;;;32.89;59.33
23223;BME280;11780;13.904;100.620;2023-09-08T08:59:50;100486.78;;;32.88;58.80
23223;BME280;11780;13.904;100.620;2023-09-08T09:02:25;100490.47;;;32.92;58.94
23223;BME280;11780;13.904;100.620;2023-09-08T09:04:58;100496.81;;;32.92;59.00
23223;BME280;11780;13.904;100.620;2023-09-08T09:07:30;100490.47;;;32.92;59.11
23223;BME280;11780;13.904;100.620;2023-09-08T09:10:01;100488.84;;;32.91;59.14
23223;BME280;11780;13.904;100.620;2023-09-08T09:12:31;100495.53;;;32.90;59.00
23223;BME280;11780;13.904;100.620;2023-09-08T09:15:02;100491.63;;;32.91;58.90
23223;BME280;11780;13.904;100.620;2023-09-08T09:17:35;100495.66;;;32.93;58.74
23223;BME280;11780;13.904;100.620;2023-09-08T09:22:45;100500.41;;;32.93;58.47
23223;BME280;11780;13.904;100.620;2023-09-08T09:25:26;100506.75;;;32.93;58.67
23223;BME280;11780;13.904;100.620;2023-09-08T09:27:59;100504.75;;;32.94;58.85
23223;BME280;11780;13.904;100.620;2023-09-08T09:30:47;100511.50;;;32.93;58.70
23223;BME280;11780;13.904;100.620;2023-09-08T09:33:18;100508.72;;;32.93;58.47
23223;BME280;11780;13.904;100.620;2023-09-08T09:35:53;100505.47;;;32.91;58.49
23223;BME280;11780;13.904;100.620;2023-09-08T09:38:26;100509.88;;;32.92;58.88
23223;BME280;11780;13.904;100.620;2023-09-08T09:40:57;100509.88;;;32.92;58.79
23223;BME280;11780;13.904;100.620;2023-09-08T09:43:28;100512.63;;;32.92;58.87
23223;BME280;11780;13.904;100.620;2023-09-08T09:45:59;100511.34;;;32.89;58.94
23223;BME280;11780;13.904;100.620;2023-09-08T09:48:30;100507.78;;;32.89;58.87
23223;BME280;11780;13.904;100.620;2023-09-08T09:51:18;100509.03;;;32.91;58.88
23223;BME280;11780;13.904;100.620;2023-09-08T09:53:54;100509.03;;;32.91;58.75
23223;BME280;11780;13.904;100.620;2023-09-08T09:56:25;100508.72;;;32.93;58.84
23223;BME280;11780;13.904;100.620;2023-09-08T09:58:56;100510.19;;;32.90;59.26
23223;BME280;11780;13.904;100.620;2023-09-08T10:01:28;100514.94;;;32.90;58.87
23223;BME280;11780;13.904;100.620;2023-09-08T10:03:59;100516.56;;;32.91;59.11
23223;BME280;11780;13.904;100.620;2023-09-08T10:06:35;100512.16;;;32.90;59.41
23223;BME280;11780;13.904;100.620;2023-09-08T10:09:06;100520.81;;;32.88;59.57
23223;BME280;11780;13.904;100.620;2023-09-08T10:11:49;100517.25;;;32.88;58.79
23223;BME280;11780;13.904;100.620;2023-09-08T10:14:21;100517.25;;;32.88;59.11
23223;BME280;11780;13.904;100.620;2023-09-08T10:16:55;100511.34;;;32.89;58.76
23223;BME280;11780;13.904;100.620;2023-09-08T10:19:27;100519.19;;;32.87;58.68
23223;BME280;11780;13.904;100.620;2023-09-08T10:21:59;100518.84;;;32.89;58.41
23223;BME280;11780;13.904;100.620;2023-09-08T10:24:34;100523.47;;;32.85;58.90
23223;BME280;11780;13.904;100.620;2023-09-08T10:27:08;100525.88;;;32.86;58.34
23223;BME280;11780;13.904;100.620;2023-09-08T10:29:39;100525.09;;;32.86;58.53
23223;BME280;11780;13.904;100.620;2023-09-08T10:32:10;100525.53;;;32.88;58.64
23223;BME280;11780;13.904;100.620;2023-09-08T10:34:42;100529.00;;;32.85;58.35
23223;BME280;11780;13.904;100.620;2023-09-08T10:37:24;100533.03;;;32.87;58.43
23223;BME280;11780;13.904;100.620;2023-09-08T10:39:56;100530.63;;;32.86;58.44
23223;BME280;11780;13.904;100.620;2023-09-08T10:42:46;100538.94;;;32.86;58.25
23223;BME280;11780;13.904;100.620;2023-09-08T10:45:18;100536.94;;;32.86;58.18
23223;BME280;11780;13.904;100.620;2023-09-08T10:50:35;100532.25;;;32.87;58.33
23223;BME280;11780;13.904;100.620;2023-09-08T10:53:16;100533.75;;;32.84;58.08
23223;BME280;11780;13.904;100.620;2023-09-08T10:55:52;100538.94;;;32.86;58.38
23223;BME280;11780;13.904;100.620;2023-09-08T10:58:43;100543.78;;;32.89;57.98
23223;BME280;11780;13.904;100.620;2023-09-08T11:01:20;100546.09;;;32.87;58.13
23223;BME280;11780;13.904;100.620;2023-09-08T11:03:57;100541.69;;;32.86;58.26
23223;BME280;11780;13.904;100.620;2023-09-08T11:06:28;100540.09;;;32.85;58.56
23223;BME280;11780;13.904;100.620;2023-09-08T11:09:07;100539.97;;;32.81;58.47
23223;BME280;11780;13.904;100.620;2023-09-08T11:11:38;100547.91;;;32.83;58.34
23223;BME280;11780;13.904;100.620;2023-09-08T11:14:09;100552.00;;;32.85;58.70
23223;BME280;11780;13.904;100.620;2023-09-08T11:16:39;100549.53;;;32.84;58.35
23223;BME280;11780;13.904;100.620;2023-09-08T11:19:09;100545.16;;;32.83;58.57
23223;BME280;11780;13.904;100.620;2023-09-08T11:21:40;100546.78;;;32.84;58.84
23223;BME280;11780;13.904;100.620;2023-09-08T11:24:11;100544.81;;;32.84;58.56
23223;BME280;11780;13.904;100.620;2023-09-08T11:26:44;100541.22;;;32.84;58.82
23223;BME280;11780;13.904;100.620;2023-09-08T11:29:16;100545.97;;;32.83;59.00
23223;BME280;11780;13.904;100.620;2023-09-08T11:31:52;100547.13;;;32.82;58.58
23223;BME280;11780;13.904;100.620;2023-09-08T11:34:22;100544.66;;;32.80;58.62
23223;BME280;11780;13.904;100.620;2023-09-08T11:36:53;100555.06;;;32.84;58.65
23223;BME280;11780;13.904;100.620;2023-09-08T11:39:24;100556.22;;;32.83;58.60
23223;BME280;11780;13.904;100.620;2023-09-08T11:42:00;100554.28;;;32.83;58.62
23223;BME280;11780;13.904;100.620;2023-09-08T11:44:32;100556.69;;;32.85;59.01
23223;BME280;11780;13.904;100.620;2023-09-08T11:47:04;100558.19;;;32.82;58.63
23223;BME280;11780;13.904;100.620;2023-09-08T11:49:38;100554.59;;;32.82;58.97
23223;BME280;11780;13.904;100.620;2023-09-08T11:52:09;100556.88;;;32.79;58.59
23223;BME280;11780;13.904;100.620;2023-09-08T11:54:40;100557.84;;;32.84;58.52
23223;BME280;11780;13.904;100.620;2023-09-08T11:57:28;100562.41;;;32.79;59.02
23223;BME280;11780;13.904;100.620;2023-09-08T12:00:00;100567.97;;;32.79;59.07
23223;BME280;11780;13.904;100.620;2023-09-08T12:02:36;100575.81;;;32.77;59.08
23223;BME280;11780;13.904;100.620;2023-09-08T12:05:10;100571.56;;;32.80;59.16
23223;BME280;11780;13.904;100.620;2023-09-08T12:07:41;100572.34;;;32.80;59.35
23223;BME280;11780;13.904;100.620;2023-09-08T12:10:12;100584.13;;;32.77;59.17
23223;BME280;11780;13.904;100.620;2023-09-08T12:12:45;100582.50;;;32.76;59.02
23223;BME280;11780;13.904;100.620;2023-09-08T12:15:38;100598.31;;;32.76;59.13
23223;BME280;11780;13.904;100.620;2023-09-08T12:18:11;100595.22;;;32.77;59.24
23223;BME280;11780;13.904;100.620;2023-09-08T12:20:43;100600.28;;;32.75;58.90
23223;BME280;11780;13.904;100.620;2023-09-08T12:23:21;100602.34;;;32.78;59.09
23223;BME280;11780;13.904;100.620;2023-09-08T12:25:52;100600.28;;;32.75;59.22
23223;BME280;11780;13.904;100.620;2023-09-08T12:28:23;100608.22;;;32.77;59.19
23223;BME280;11780;13.904;100.620;2023-09-08T12:31:00;100618.50;;;32.76;59.47
23223;BME280;11780;13.904;100.620;2023-09-08T12:33:30;100633.16;;;32.77;58.97
23223;BME280;11780;13.904;100.620;2023-09-08T12:36:19;100643.44;;;32.76;59.35
23223;BME280;11780;13.904;100.620;2023-09-08T12:38:52;100646.22;;;32.76;59.13
23223;BME280;11780;13.904;100.620;2023-09-08T12:41:23;100644.91;;;32.74;59.29
23223;BME280;11780;13.904;100.620;2023-09-08T12:43:53;100641.00;;;32.75;59.18
23223;BME280;11780;13.904;100.620;2023-09-08T12:46:25;100640.53;;;32.73;59.32
23223;BME280;11780;13.904;100.620;2023-09-08T12:48:55;100642.50;;;32.72;59.70
23223;BME280;11780;13.904;100.620;2023-09-08T12:51:26;100650.81;;;32.72;59.51
23223;BME280;11780;13.904;100.620;2023-09-08T12:53:56;100649.19;;;32.71;59.58
23223;BME280;11780;13.904;100.620;2023-09-08T12:56:27;100656.53;;;32.67;59.72
23223;BME280;11780;13.904;100.620;2023-09-08T12:58:58;100667.63;;;32.67;59.60
23223;BME280;11780;13.904;100.620;2023-09-08T13:01:28;100659.53;;;32.62;59.81
23223;BME280;11780;13.904;100.620;2023-09-08T13:03:59;100659.97;;;32.64;59.76
23223;BME280;11780;13.904;100.620;2023-09-08T13:06:29;100662.97;;;32.59;59.41
23223;BME280;11780;13.904;100.620;2023-09-08T13:09:02;100674.53;;;32.61;59.27
23223;BME280;11780;13.904;100.620;2023-09-08T13:11:33;100671.28;;;32.59;59.45
23223;BME280;11780;13.904;100.620;2023-09-08T13:14:04;100675.19;;;32.58;58.90
23223;BME280;11780;13.904;100.620;2023-09-08T13:16:34;100675.19;;;32.58;58.55
23223;BME280;11780;13.904;100.620;2023-09-08T13:19:05;100684.16;;;32.55;58.54
23223;BME280;11780;13.904;100.620;2023-09-08T13:21:35;100700.31;;;32.53;58.72
23223;BME280;11780;13.904;100.620;2023-09-08T13:24:07;100704.22;;;32.52;58.87
23223;BME280;11780;13.904;100.620;2023-09-08T13:26:38;100712.34;;;32.57;58.85
23223;BME280;11780;13.904;100.620;2023-09-08T13:29:08;100725.50;;;32.60;58.81
23223;BME280;11780;13.904;100.620;2023-09-08T13:31:39;100736.78;;;32.55;59.41
23223;BME280;11780;13.904;100.620;2023-09-08T13:34:25;100749.59;;;32.59;59.24
23223;BME280;11780;13.904;100.620;2023-09-08T13:36:55;100758.25;;;32.58;59.09
23223;BME280;11780;13.904;100.620;2023-09-08T13:39:25;100763.81;;;32.58;59.50
23223;BME280;11780;13.904;100.620;2023-09-08T13:42:02;100771.75;;;32.59;59.02
23223;BME280;11780;13.904;100.620;2023-09-08T13:44:42;100772.44;;;32.56;58.87
23223;BME280;11780;13.904;100.620;2023-09-08T15:14:34;100842.31;;;32.06;62.28
23223;BME280;11780;13.904;100.620;2023-09-08T15:17:05;100847.66;;;32.11;62.24
23223;BME280;11780;13.904;100.620;2023-09-08T15:19:36;100850.91;;;32.13;62.40
23223;BME280;11780;13.904;100.620;2023-09-08T15:22:06;100850.41;;;32.19;62.20
23223;BME280;11780;13.904;100.620;2023-09-08T15:24:37;100846.97;;;32.23;62.05